sensor_id;sensor_type;location;lat;lon;timestamp;pressure;altitude;pressure_sealevel;temperature;humidity
37312;BME280;23197;53.912;9.138;2022-10-16T00:01:32;100771.59;;;16.63;67.39
37312;BME280;23197;53.912;9.138;2022-10-16T00:03:59;100774.94;;;16.65;67.43
37312;BME280;23197;53.912;9.138;2022-10-16T00:06:26;100780.88;;;16.67;67.21
37312;BME280;23197;53.912;9.138;2022-10-16T00:08:53;100782.56;;;16.68;67.12
37312;BME280;23197;53.912;9.138;2022-10-16T00:11:27;100786.47;;;16.64;67.20
37312;BME280;23197;53.912;9.138;2022-10-16T00:13:59;100779.22;;;16.66;67.08
37312;BME280;23197;53.912;9.138;2022-10-16T00:16:26;100779.22;;;16.66;66.93
37312;BME280;23197;53.912;9.138;2022-10-16T00:18:51;100784.50;;;16.66;67.07
37312;BME280;23197;53.912;9.138;2022-10-16T00:21:20;100785.06;;;16.60;67.17
37312;BME280;23197;53.912;9.138;2022-10-16T00:23:45;100784.22;;;16.60;67.35
37312;BME280;23197;53.912;9.138;2022-10-16T00:26:14;100780.06;;;16.57;67.37
37312;BME280;23197;53.912;9.138;2022-10-16T00:28:40;100785.34;;;16.57;67.22
37312;BME280;23197;53.912;9.138;2022-10-16T00:31:08;100777.53;;;16.55;67.31
37312;BME280;23197;53.912;9.138;2022-10-16T00:33:34;100780.31;;;16.54;67.25
37312;BME280;23197;53.912;9.138;2022-10-16T00:36:01;100787.56;;;16.52;67.19
37312;BME280;23197;53.912;9.138;2022-10-16T00:38:27;100784.50;;;16.47;67.44
37312;BME280;23197;53.912;9.138;2022-10-16T00:40:53;100790.59;;;16.47;67.48
37312;BME280;23197;53.912;9.138;2022-10-16T00:43:55;100797.00;;;16.45;67.52
37312;BME280;23197;53.912;9.138;2022-10-16T00:48:56;100795.88;;;16.47;67.08
37312;BME280;23197;53.912;9.138;2022-10-16T00:51:26;100795.63;;;16.50;67.20
37312;BME280;23197;53.912;9.138;2022-10-16T00:53:54;100803.66;;;16.49;67.23
37312;BME280;23197;53.912;9.138;2022-10-16T00:56:20;100795.47;;;16.52;67.34
37312;BME280;23197;53.912;9.138;2022-10-16T00:58:45;100794.50;;;16.53;66.79
37312;BME280;23197;53.912;9.138;2022-10-16T01:01:11;100806.72;;;16.54;67.19
37312;BME280;23197;53.912;9.138;2022-10-16T01:03:37;100798.78;;;16.54;66.99
37312;BME280;23197;53.912;9.138;2022-10-16T01:06:36;100795.31;;;16.53;67.00
37312;BME280;23197;53.912;9.138;2022-10-16T01:09:17;100804.22;;;16.52;66.90
37312;BME280;23197;53.912;9.138;2022-10-16T01:14:32;100813.66;;;16.55;66.55
37312;BME280;23197;53.912;9.138;2022-10-16T01:17:07;100803.09;;;16.55;66.34
37312;BME280;23197;53.912;9.138;2022-10-16T01:19:57;100801.44;;;16.54;66.43
37312;BME280;23197;53.912;9.138;2022-10-16T01:22:36;100810.31;;;16.53;66.34
37312;BME280;23197;53.912;9.138;2022-10-16T01:25:05;100805.47;;;16.58;66.06
37312;BME280;23197;53.912;9.138;2022-10-16T01:27:35;100813.66;;;16.55;66.00
37312;BME280;23197;53.912;9.138;2022-10-16T01:30:23;100813.94;;;16.52;66.22
37312;BME280;23197;53.912;9.138;2022-10-16T01:32:57;100814.78;;;16.52;66.18
37312;BME280;23197;53.912;9.138;2022-10-16T01:35:35;100808.09;;;16.48;66.21
37312;BME280;23197;53.912;9.138;2022-10-16T01:38:09;100803.66;;;16.49;66.22
37312;BME280;23197;53.912;9.138;2022-10-16T01:40:38;100809.63;;;16.51;66.08
37312;BME280;23197;53.912;9.138;2022-10-16T01:43:11;100805.34;;;16.50;66.08
37312;BME280;23197;53.912;9.138;2022-10-16T01:45:37;100806.03;;;16.52;65.78
37312;BME280;23197;53.912;9.138;2022-10-16T01:48:04;100807.69;;;16.53;66.11
37312;BME280;23197;53.912;9.138;2022-10-16T01:50:35;100795.06;;;16.57;65.94
37312;BME280;23197;53.912;9.138;2022-10-16T01:53:03;100802.00;;;16.58;65.89
37312;BME280;23197;53.912;9.138;2022-10-16T01:55:32;100797.81;;;16.55;65.63
37312;BME280;23197;53.912;9.138;2022-10-16T01:58:01;100795.91;;;16.57;65.74
37312;BME280;23197;53.912;9.138;2022-10-16T02:00:29;100792.28;;;16.58;65.75
37312;BME280;23197;53.912;9.138;2022-10-16T02:02:55;100792.97;;;16.60;65.62
37312;BME280;23197;53.912;9.138;2022-10-16T02:05:32;100797.56;;;16.58;65.54
37312;BME280;23197;53.912;9.138;2022-10-16T02:07:59;100800.88;;;16.60;65.51
37312;BME280;23197;53.912;9.138;2022-10-16T02:10:25;100797.56;;;16.58;65.26
37312;BME280;23197;53.912;9.138;2022-10-16T02:12:56;100797.81;;;16.55;65.40
37312;BME280;23197;53.912;9.138;2022-10-16T02:15:23;100800.59;;;16.53;65.36
37312;BME280;23197;53.912;9.138;2022-10-16T02:17:49;100797.00;;;16.54;65.37
37312;BME280;23197;53.912;9.138;2022-10-16T02:20:19;100791.16;;;16.51;65.23
37312;BME280;23197;53.912;9.138;2022-10-16T02:22:49;100793.09;;;16.49;65.32
37312;BME280;23197;53.912;9.138;2022-10-16T02:25:25;100804.63;;;16.48;65.20
37312;BME280;23197;53.912;9.138;2022-10-16T02:28:04;100805.59;;;16.47;65.22
37312;BME280;23197;53.912;9.138;2022-10-16T02:30:58;100810.31;;;16.43;64.99
37312;BME280;23197;53.912;9.138;2022-10-16T02:33:27;100806.97;;;16.41;64.93
37312;BME280;23197;53.912;9.138;2022-10-16T02:35:54;100803.34;;;16.33;64.81
37312;BME280;23197;53.912;9.138;2022-10-16T02:38:21;100808.88;;;16.29;64.80
37312;BME280;23197;53.912;9.138;2022-10-16T02:40:48;100810.44;;;16.32;65.12
37312;BME280;23197;53.912;9.138;2022-10-16T02:43:14;100808.06;;;16.29;64.73
37312;BME280;23197;53.912;9.138;2022-10-16T02:45:40;100803.06;;;16.26;64.72
37312;BME280;23197;53.912;9.138;2022-10-16T02:48:05;100807.50;;;16.25;64.74
37312;BME280;23197;53.912;9.138;2022-10-16T02:50:34;100806.22;;;16.20;64.66
37312;BME280;23197;53.912;9.138;2022-10-16T02:53:20;100808.28;;;16.16;64.83
37312;BME280;23197;53.912;9.138;2022-10-16T02:55:46;100803.03;;;16.16;64.90
37312;BME280;23197;53.912;9.138;2022-10-16T02:58:11;100807.47;;;16.16;64.70
37312;BME280;23197;53.912;9.138;2022-10-16T03:00:36;100804.28;;;16.12;64.78
37312;BME280;23197;53.912;9.138;2022-10-16T03:03:02;100805.66;;;16.16;64.61
37312;BME280;23197;53.912;9.138;2022-10-16T03:05:27;100799.69;;;16.14;65.00
37312;BME280;23197;53.912;9.138;2022-10-16T03:07:53;100801.66;;;16.12;64.76
37312;BME280;23197;53.912;9.138;2022-10-16T03:10:18;100798.28;;;16.10;64.89
37312;BME280;23197;53.912;9.138;2022-10-16T03:12:44;100805.25;;;16.11;64.80
37312;BME280;23197;53.912;9.138;2022-10-16T03:15:09;100806.19;;;16.10;64.66
37312;BME280;23197;53.912;9.138;2022-10-16T03:17:35;100805.50;;;16.08;64.95
37312;BME280;23197;53.912;9.138;2022-10-16T03:20:00;100803.84;;;16.07;64.96
37312;BME280;23197;53.912;9.138;2022-10-16T03:22:26;100809.13;;;16.07;65.14
37312;BME280;23197;53.912;9.138;2022-10-16T03:24:52;100819.66;;;16.07;65.00
37312;BME280;23197;53.912;9.138;2022-10-16T03:27:17;100814.09;;;16.10;65.08
37312;BME280;23197;53.912;9.138;2022-10-16T03:29:42;100818.53;;;16.10;64.75
37312;BME280;23197;53.912;9.138;2022-10-16T03:32:08;100822.72;;;16.12;65.05
37312;BME280;23197;53.912;9.138;2022-10-16T03:34:33;100832.56;;;16.10;64.73
37312;BME280;23197;53.912;9.138;2022-10-16T03:36:59;100830.19;;;16.07;64.68
37312;BME280;23197;53.912;9.138;2022-10-16T03:39:24;100831.03;;;16.08;64.91
37312;BME280;23197;53.912;9.138;2022-10-16T03:41:49;100831.88;;;16.08;64.86
37312;BME280;23197;53.912;9.138;2022-10-16T03:44:15;100826.88;;;16.05;64.87
37312;BME280;23197;53.912;9.138;2022-10-16T03:46:40;100831.88;;;16.08;65.26
37312;BME280;23197;53.912;9.138;2022-10-16T03:49:06;100833.41;;;16.11;65.27
37312;BME280;23197;53.912;9.138;2022-10-16T03:51:31;100826.44;;;16.10;65.05
37312;BME280;23197;53.912;9.138;2022-10-16T03:53:57;100840.22;;;16.13;65.11
37312;BME280;23197;53.912;9.138;2022-10-16T03:56:22;100834.41;;;16.19;65.18
37312;BME280;23197;53.912;9.138;2022-10-16T03:58:47;100843.59;;;16.25;64.96
37312;BME280;23197;53.912;9.138;2022-10-16T04:01:13;100831.94;;;16.27;64.98
37312;BME280;23197;53.912;9.138;2022-10-16T04:03:39;100835.25;;;16.29;64.78
37312;BME280;23197;53.912;9.138;2022-10-16T04:06:04;100840.41;;;16.31;64.79
37312;BME280;23197;53.912;9.138;2022-10-16T04:08:30;100844.13;;;16.28;64.47
37312;BME280;23197;53.912;9.138;2022-10-16T04:10:55;100847.50;;;16.31;64.69
37312;BME280;23197;53.912;9.138;2022-10-16T04:13:21;100847.22;;;16.34;64.45
37312;BME280;23197;53.912;9.138;2022-10-16T04:15:46;100856.53;;;16.38;64.80
37312;BME280;23197;53.912;9.138;2022-10-16T04:18:12;100852.25;;;16.37;64.29
37312;BME280;23197;53.912;9.138;2022-10-16T04:20:37;100858.59;;;16.34;64.25
37312;BME280;23197;53.912;9.138;2022-10-16T04:23:03;100866.38;;;16.36;64.43
37312;BME280;23197;53.912;9.138;2022-10-16T04:25:30;100862.78;;;16.37;64.10
37312;BME280;23197;53.912;9.138;2022-10-16T04:27:55;100857.22;;;16.40;64.21
37312;BME280;23197;53.912;9.138;2022-10-16T04:30:21;100865.28;;;16.38;63.92
37312;BME280;23197;53.912;9.138;2022-10-16T04:32:51;100870.56;;;16.38;63.94
37312;BME280;23197;53.912;9.138;2022-10-16T04:35:18;100876.66;;;16.39;63.97
37312;BME280;23197;53.912;9.138;2022-10-16T04:37:43;100874.72;;;16.41;64.01
37312;BME280;23197;53.912;9.138;2022-10-16T04:40:09;100877.94;;;16.44;63.93
37312;BME280;23197;53.912;9.138;2022-10-16T04:42:34;100884.75;;;16.47;63.89
37312;BME280;23197;53.912;9.138;2022-10-16T04:45:00;100887.53;;;16.45;63.58
37312;BME280;23197;53.912;9.138;2022-10-16T04:47:25;100891.69;;;16.48;63.78
37312;BME280;23197;53.912;9.138;2022-10-16T04:49:51;100885.56;;;16.47;63.25
37312;BME280;23197;53.912;9.138;2022-10-16T04:52:16;100895.16;;;16.48;63.52
37312;BME280;23197;53.912;9.138;2022-10-16T04:54:42;100883.50;;;16.51;63.38
37312;BME280;23197;53.912;9.138;2022-10-16T04:57:10;100890.97;;;16.46;63.52
37312;BME280;23197;53.912;9.138;2022-10-16T04:59:35;100886.69;;;16.45;63.52
37312;BME280;23197;53.912;9.138;2022-10-16T05:02:01;100886.41;;;16.48;63.27
37312;BME280;23197;53.912;9.138;2022-10-16T05:04:26;100887.13;;;16.50;63.42
37312;BME280;23197;53.912;9.138;2022-10-16T05:06:52;100882.25;;;16.45;63.26
37312;BME280;23197;53.912;9.138;2022-10-16T05:09:17;100884.19;;;16.43;63.27
37312;BME280;23197;53.912;9.138;2022-10-16T05:11:42;100882.25;;;16.45;63.32
37312;BME280;23197;53.912;9.138;2022-10-16T05:14:08;100895.56;;;16.44;63.11
37312;BME280;23197;53.912;9.138;2022-10-16T05:16:33;100881.56;;;16.43;62.99
37312;BME280;23197;53.912;9.138;2022-10-16T05:18:59;100898.06;;;16.45;63.21
37312;BME280;23197;53.912;9.138;2022-10-16T05:21:24;100891.69;;;16.48;63.07
37312;BME280;23197;53.912;9.138;2022-10-16T05:23:50;100886.41;;;16.48;63.08
37312;BME280;23197;53.912;9.138;2022-10-16T05:26:15;100891.69;;;16.48;63.07
37312;BME280;23197;53.912;9.138;2022-10-16T05:28:41;100894.91;;;16.51;62.83
37312;BME280;23197;53.912;9.138;2022-10-16T05:31:08;100897.69;;;16.50;63.04
37312;BME280;23197;53.912;9.138;2022-10-16T05:33:34;100897.69;;;16.50;62.92
37312;BME280;23197;53.912;9.138;2022-10-16T05:36:03;100892.41;;;16.50;62.86
37312;BME280;23197;53.912;9.138;2022-10-16T05:38:29;100901.69;;;16.54;62.91
37312;BME280;23197;53.912;9.138;2022-10-16T05:40:54;100892.56;;;16.58;63.13
37312;BME280;23197;53.912;9.138;2022-10-16T05:43:21;100898.66;;;16.59;62.99
37312;BME280;23197;53.912;9.138;2022-10-16T05:45:56;100898.66;;;16.59;62.95
37312;BME280;23197;53.912;9.138;2022-10-16T05:48:22;100896.72;;;16.61;62.72
37312;BME280;23197;53.912;9.138;2022-10-16T05:50:48;100892.28;;;16.61;62.83
37312;BME280;23197;53.912;9.138;2022-10-16T05:53:13;100897.69;;;16.60;62.66
37312;BME280;23197;53.912;9.138;2022-10-16T05:55:39;100900.63;;;16.66;62.84
37312;BME280;23197;53.912;9.138;2022-10-16T05:58:04;100904.09;;;16.67;62.96
37312;BME280;23197;53.912;9.138;2022-10-16T06:00:29;100912.00;;;16.67;62.61
37312;BME280;23197;53.912;9.138;2022-10-16T06:02:55;100907.84;;;16.64;62.61
37312;BME280;23197;53.912;9.138;2022-10-16T06:05:20;100909.50;;;16.65;62.75
37312;BME280;23197;53.912;9.138;2022-10-16T06:07:45;100922.00;;;16.63;62.57
37312;BME280;23197;53.912;9.138;2022-10-16T06:10:11;100927.28;;;16.63;62.65
37312;BME280;23197;53.912;9.138;2022-10-16T06:12:36;100925.59;;;16.62;62.92
37312;BME280;23197;53.912;9.138;2022-10-16T06:15:02;100930.75;;;16.64;62.77
37312;BME280;23197;53.912;9.138;2022-10-16T06:17:27;100937.56;;;16.66;63.03
37312;BME280;23197;53.912;9.138;2022-10-16T06:19:53;100927.97;;;16.65;63.10
37312;BME280;23197;53.912;9.138;2022-10-16T06:22:18;100935.91;;;16.65;63.23
37312;BME280;23197;53.912;9.138;2022-10-16T06:24:44;100939.94;;;16.69;63.42
37312;BME280;23197;53.912;9.138;2022-10-16T06:27:09;100939.22;;;16.67;63.25
37312;BME280;23197;53.912;9.138;2022-10-16T06:29:34;100945.47;;;16.66;63.35
37312;BME280;23197;53.912;9.138;2022-10-16T06:32:00;100938.53;;;16.65;63.25
37312;BME280;23197;53.912;9.138;2022-10-16T06:34:28;100951.22;;;16.71;63.33
37312;BME280;23197;53.912;9.138;2022-10-16T06:36:55;100944.00;;;16.73;63.48
37312;BME280;23197;53.912;9.138;2022-10-16T06:39:21;100948.44;;;16.73;63.50
37312;BME280;23197;53.912;9.138;2022-10-16T06:41:46;100957.88;;;16.75;63.69
37312;BME280;23197;53.912;9.138;2022-10-16T06:44:15;100959.31;;;16.79;63.73
37312;BME280;23197;53.912;9.138;2022-10-16T06:46:40;100964.03;;;16.86;63.74
37312;BME280;23197;53.912;9.138;2022-10-16T06:49:05;100972.66;;;16.88;63.54
37312;BME280;23197;53.912;9.138;2022-10-16T06:51:31;100977.94;;;16.88;63.48
37312;BME280;23197;53.912;9.138;2022-10-16T06:53:59;100984.63;;;16.92;63.66
37312;BME280;23197;53.912;9.138;2022-10-16T06:56:27;100991.56;;;16.93;63.38
37312;BME280;23197;53.912;9.138;2022-10-16T06:58:53;100982.13;;;16.90;63.40
37312;BME280;23197;53.912;9.138;2022-10-16T07:01:21;100994.22;;;16.93;63.44
37312;BME280;23197;53.912;9.138;2022-10-16T07:03:47;100992.97;;;16.97;63.67
37312;BME280;23197;53.912;9.138;2022-10-16T07:06:15;101003.25;;;17.00;63.40
37312;BME280;23197;53.912;9.138;2022-10-16T07:08:43;101000.06;;;17.06;63.86
37312;BME280;23197;53.912;9.138;2022-10-16T07:11:11;100994.13;;;17.23;64.17
37312;BME280;23197;53.912;9.138;2022-10-16T07:13:39;101009.59;;;17.38;64.23
37312;BME280;23197;53.912;9.138;2022-10-16T07:16:12;101005.16;;;17.48;63.68
37312;BME280;23197;53.912;9.138;2022-10-16T07:18:39;101006.94;;;17.57;63.64
37312;BME280;23197;53.912;9.138;2022-10-16T07:21:13;101008.06;;;17.64;62.90
37312;BME280;23197;53.912;9.138;2022-10-16T07:23:39;101006.16;;;17.76;62.98
37312;BME280;23197;53.912;9.138;2022-10-16T07:26:06;100999.03;;;17.86;62.80
37312;BME280;23197;53.912;9.138;2022-10-16T07:28:32;100996.38;;;17.96;63.13
37312;BME280;23197;53.912;9.138;2022-10-16T07:31:05;101001.09;;;18.02;62.18
37312;BME280;23197;53.912;9.138;2022-10-16T07:33:33;101003.59;;;18.13;62.32
37312;BME280;23197;53.912;9.138;2022-10-16T07:35:59;100993.41;;;18.18;61.92
37312;BME280;23197;53.912;9.138;2022-10-16T07:38:24;100997.13;;;18.25;61.90
37312;BME280;23197;53.912;9.138;2022-10-16T07:41:02;101006.06;;;18.24;61.21
37312;BME280;23197;53.912;9.138;2022-10-16T07:43:28;100998.28;;;18.23;60.90
37312;BME280;23197;53.912;9.138;2022-10-16T07:45:53;100991.28;;;18.31;61.16
37312;BME280;23197;53.912;9.138;2022-10-16T07:48:21;101003.75;;;18.49;61.21
37312;BME280;23197;53.912;9.138;2022-10-16T07:50:47;101014.50;;;18.84;61.89
37312;BME280;23197;53.912;9.138;2022-10-16T07:53:13;101017.63;;;19.25;61.73
37312;BME280;23197;53.912;9.138;2022-10-16T07:55:39;101023.41;;;19.74;62.30
37312;BME280;23197;53.912;9.138;2022-10-16T07:58:05;101031.44;;;20.26;62.07
37312;BME280;23197;53.912;9.138;2022-10-16T08:00:31;101036.03;;;20.68;60.08
37312;BME280;23197;53.912;9.138;2022-10-16T08:02:57;101040.16;;;21.04;58.42
37312;BME280;23197;53.912;9.138;2022-10-16T08:05:27;101032.31;;;21.45;57.07
37312;BME280;23197;53.912;9.138;2022-10-16T08:07:53;101042.47;;;21.90;57.19
37312;BME280;23197;53.912;9.138;2022-10-16T08:10:20;101033.00;;;22.37;55.38
37312;BME280;23197;53.912;9.138;2022-10-16T08:12:46;101035.19;;;22.81;54.94
37312;BME280;23197;53.912;9.138;2022-10-16T08:15:12;101032.69;;;23.18;54.73
37312;BME280;23197;53.912;9.138;2022-10-16T08:17:37;101040.16;;;23.54;52.10
37312;BME280;23197;53.912;9.138;2022-10-16T08:20:04;101047.31;;;23.99;52.35
37312;BME280;23197;53.912;9.138;2022-10-16T08:22:29;101048.44;;;24.43;51.21
37312;BME280;23197;53.912;9.138;2022-10-16T08:24:55;101050.84;;;24.82;50.41
37312;BME280;23197;53.912;9.138;2022-10-16T08:27:20;101047.50;;;25.09;47.74
37312;BME280;23197;53.912;9.138;2022-10-16T08:29:45;101064.94;;;25.41;47.94
37312;BME280;23197;53.912;9.138;2022-10-16T08:32:11;101068.91;;;25.67;47.64
37312;BME280;23197;53.912;9.138;2022-10-16T08:34:37;101079.28;;;25.91;47.32
37312;BME280;23197;53.912;9.138;2022-10-16T08:37:02;101065.69;;;26.21;47.13
37312;BME280;23197;53.912;9.138;2022-10-16T08:39:27;101067.13;;;26.45;45.28
37312;BME280;23197;53.912;9.138;2022-10-16T08:42:13;101076.34;;;26.64;44.74
37312;BME280;23197;53.912;9.138;2022-10-16T08:47:31;101099.38;;;26.30;42.50
37312;BME280;23197;53.912;9.138;2022-10-16T08:50:09;101096.47;;;26.04;42.52
37312;BME280;23197;53.912;9.138;2022-10-16T08:52:39;101104.66;;;25.95;43.12
37312;BME280;23197;53.912;9.138;2022-10-16T08:55:06;101103.97;;;25.72;43.12
37312;BME280;23197;53.912;9.138;2022-10-16T08:57:32;101101.22;;;25.44;42.53
37312;BME280;23197;53.912;9.138;2022-10-16T09:00:00;101096.75;;;25.15;43.38
37312;BME280;23197;53.912;9.138;2022-10-16T09:10:55;101119.03;;;23.79;44.82
37312;BME280;23197;53.912;9.138;2022-10-16T09:13:30;101123.56;;;23.48;45.44
37312;BME280;23197;53.912;9.138;2022-10-16T09:18:43;101112.94;;;23.00;46.86
37312;BME280;23197;53.912;9.138;2022-10-16T09:21:19;101124.97;;;22.88;47.67
37312;BME280;23197;53.912;9.138;2022-10-16T09:23:47;101154.78;;;22.75;47.93
37312;BME280;23197;53.912;9.138;2022-10-16T09:26:13;101146.47;;;22.62;47.86
37312;BME280;23197;53.912;9.138;2022-10-16T09:28:40;101141.50;;;22.51;48.27
37312;BME280;23197;53.912;9.138;2022-10-16T09:31:18;101147.50;;;22.45;48.43
37312;BME280;23197;53.912;9.138;2022-10-16T09:33:47;101147.28;;;22.87;49.21
37312;BME280;23197;53.912;9.138;2022-10-16T09:36:13;101136.31;;;23.29;49.84
37312;BME280;23197;53.912;9.138;2022-10-16T09:38:39;101147.59;;;23.48;48.87
37312;BME280;23197;53.912;9.138;2022-10-16T09:41:15;101139.22;;;23.51;47.67
37312;BME280;23197;53.912;9.138;2022-10-16T09:43:56;101146.91;;;23.46;47.05
37312;BME280;23197;53.912;9.138;2022-10-16T09:46:26;101134.47;;;23.69;47.14
37312;BME280;23197;53.912;9.138;2022-10-16T09:48:58;101150.13;;;24.18;48.18
37312;BME280;23197;53.912;9.138;2022-10-16T09:51:26;101147.06;;;24.67;46.98
37312;BME280;23197;53.912;9.138;2022-10-16T09:54:00;101131.94;;;25.04;46.26
37312;BME280;23197;53.912;9.138;2022-10-16T09:56:32;101142.75;;;25.40;45.48
37312;BME280;23197;53.912;9.138;2022-10-16T09:59:00;101161.00;;;25.87;44.74
37312;BME280;23197;53.912;9.138;2022-10-16T10:01:31;101148.13;;;26.40;44.72
37312;BME280;23197;53.912;9.138;2022-10-16T10:04:00;101152.31;;;27.05;45.20
37312;BME280;23197;53.912;9.138;2022-10-16T10:06:36;101157.28;;;27.56;43.55
37312;BME280;23197;53.912;9.138;2022-10-16T10:09:15;101157.81;;;27.93;40.16
37312;BME280;23197;53.912;9.138;2022-10-16T10:14:37;101172.75;;;28.49;40.12
37312;BME280;23197;53.912;9.138;2022-10-16T10:19:44;101175.84;;;28.65;38.66
37312;BME280;23197;53.912;9.138;2022-10-16T10:24:59;101197.94;;;29.07;37.64
37312;BME280;23197;53.912;9.138;2022-10-16T10:30:27;101202.00;;;29.43;38.06
37312;BME280;23197;53.912;9.138;2022-10-16T10:38:30;101203.63;;;29.57;35.87
37312;BME280;23197;53.912;9.138;2022-10-16T10:43:47;101210.06;;;29.94;35.91
37312;BME280;23197;53.912;9.138;2022-10-16T10:54:32;101223.66;;;28.63;36.27
37312;BME280;23197;53.912;9.138;2022-10-16T10:57:23;101226.34;;;28.70;35.92
37312;BME280;23197;53.912;9.138;2022-10-16T11:05:29;101235.63;;;28.87;36.04
37312;BME280;23197;53.912;9.138;2022-10-16T11:08:00;101249.91;;;28.81;35.51
37312;BME280;23197;53.912;9.138;2022-10-16T11:10:33;101256.31;;;28.41;34.70
37312;BME280;23197;53.912;9.138;2022-10-16T11:16:11;101268.00;;;28.00;36.50
37312;BME280;23197;53.912;9.138;2022-10-16T11:18:47;101274.00;;;28.02;36.36
37312;BME280;23197;53.912;9.138;2022-10-16T11:21:16;101272.25;;;27.74;35.40
37312;BME280;23197;53.912;9.138;2022-10-16T11:23:43;101274.41;;;27.64;36.34
37312;BME280;23197;53.912;9.138;2022-10-16T11:26:20;101275.59;;;27.48;36.33
37312;BME280;23197;53.912;9.138;2022-10-16T11:28:51;101283.59;;;27.42;36.22
37312;BME280;23197;53.912;9.138;2022-10-16T11:31:36;101277.00;;;27.44;36.95
37312;BME280;23197;53.912;9.138;2022-10-16T11:36:49;101294.00;;;27.58;37.18
37312;BME280;23197;53.912;9.138;2022-10-16T11:39:22;101294.13;;;27.71;36.42
37312;BME280;23197;53.912;9.138;2022-10-16T11:50:01;101291.63;;;26.86;37.50
37312;BME280;23197;53.912;9.138;2022-10-16T11:52:36;101303.84;;;26.88;37.95
37312;BME280;23197;53.912;9.138;2022-10-16T11:55:13;101310.97;;;27.02;37.76
37312;BME280;23197;53.912;9.138;2022-10-16T11:57:45;101307.91;;;27.05;38.13
37312;BME280;23197;53.912;9.138;2022-10-16T12:00:25;101310.69;;;27.19;37.77
37312;BME280;23197;53.912;9.138;2022-10-16T12:02:54;101308.81;;;27.41;36.87
37312;BME280;23197;53.912;9.138;2022-10-16T12:05:41;101320.00;;;27.51;36.97
37312;BME280;23197;53.912;9.138;2022-10-16T12:08:16;101331.44;;;27.31;36.83
37312;BME280;23197;53.912;9.138;2022-10-16T12:10:46;101328.72;;;27.03;36.48
37312;BME280;23197;53.912;9.138;2022-10-16T12:13:33;101329.13;;;26.58;36.68
37312;BME280;23197;53.912;9.138;2022-10-16T12:16:05;101334.19;;;26.31;36.79
37312;BME280;23197;53.912;9.138;2022-10-16T12:18:31;101334.56;;;26.28;36.61
37312;BME280;23197;53.912;9.138;2022-10-16T12:20:57;101346.19;;;26.35;37.46
37312;BME280;23197;53.912;9.138;2022-10-16T12:23:24;101343.38;;;26.22;37.08
37312;BME280;23197;53.912;9.138;2022-10-16T12:25:58;101345.78;;;26.17;38.00
37312;BME280;23197;53.912;9.138;2022-10-16T12:28:29;101344.75;;;26.18;37.27
37312;BME280;23197;53.912;9.138;2022-10-16T12:31:01;101335.00;;;26.32;37.09
37312;BME280;23197;53.912;9.138;2022-10-16T12:33:29;101348.78;;;26.43;37.16
37312;BME280;23197;53.912;9.138;2022-10-16T12:35:56;101351.03;;;26.61;37.05
37312;BME280;23197;53.912;9.138;2022-10-16T12:38:47;101356.22;;;26.84;37.39
37312;BME280;23197;53.912;9.138;2022-10-16T12:41:33;101351.38;;;26.94;36.10
37312;BME280;23197;53.912;9.138;2022-10-16T12:44:00;101367.56;;;26.65;35.28
37312;BME280;23197;53.912;9.138;2022-10-16T12:51:53;101378.09;;;25.71;37.87
37312;BME280;23197;53.912;9.138;2022-10-16T12:54:28;101392.22;;;25.65;38.12
37312;BME280;23197;53.912;9.138;2022-10-16T12:57:26;101388.94;;;25.40;37.59
37312;BME280;23197;53.912;9.138;2022-10-16T13:08:29;101389.63;;;25.57;37.70
37312;BME280;23197;53.912;9.138;2022-10-16T13:13:46;101390.22;;;25.96;37.05
37312;BME280;23197;53.912;9.138;2022-10-16T13:19:25;101409.06;;;26.18;36.74
37312;BME280;23197;53.912;9.138;2022-10-16T13:22:03;101413.38;;;26.34;36.43
37312;BME280;23197;53.912;9.138;2022-10-16T13:27:23;101424.75;;;26.50;36.02
37312;BME280;23197;53.912;9.138;2022-10-16T13:29:54;101431.66;;;26.60;36.37
37312;BME280;23197;53.912;9.138;2022-10-16T13:32:26;101423.44;;;26.46;35.99
37312;BME280;23197;53.912;9.138;2022-10-16T13:34:51;101437.03;;;26.30;35.56
37312;BME280;23197;53.912;9.138;2022-10-16T13:37:20;101439.38;;;26.04;35.41
37312;BME280;23197;53.912;9.138;2022-10-16T13:39:47;101445.63;;;25.81;36.13
37312;BME280;23197;53.912;9.138;2022-10-16T13:42:18;101453.66;;;25.43;35.89
37312;BME280;23197;53.912;9.138;2022-10-16T13:44:50;101448.91;;;25.08;36.37
37312;BME280;23197;53.912;9.138;2022-10-16T13:47:22;101463.44;;;24.74;37.14
37312;BME280;23197;53.912;9.138;2022-10-16T13:50:05;101468.59;;;24.45;37.65
37312;BME280;23197;53.912;9.138;2022-10-16T13:52:31;101457.00;;;24.13;38.22
37312;BME280;23197;53.912;9.138;2022-10-16T13:54:57;101466.56;;;23.83;38.77
37312;BME280;23197;53.912;9.138;2022-10-16T13:57:24;101461.91;;;23.61;39.37
37312;BME280;23197;53.912;9.138;2022-10-16T13:59:50;101473.06;;;23.48;40.37
37312;BME280;23197;53.912;9.138;2022-10-16T14:02:27;101474.72;;;23.57;40.86
37312;BME280;23197;53.912;9.138;2022-10-16T14:04:55;101471.25;;;23.73;41.00
37312;BME280;23197;53.912;9.138;2022-10-16T14:07:25;101485.75;;;23.70;40.98
37312;BME280;23197;53.912;9.138;2022-10-16T14:09:52;101483.94;;;23.63;40.84
37312;BME280;23197;53.912;9.138;2022-10-16T14:12:18;101484.72;;;23.47;40.66
37312;BME280;23197;53.912;9.138;2022-10-16T14:14:46;101486.91;;;23.35;41.02
37312;BME280;23197;53.912;9.138;2022-10-16T14:17:14;101494.41;;;23.23;41.50
37312;BME280;23197;53.912;9.138;2022-10-16T14:19:40;101503.03;;;23.09;41.71
37312;BME280;23197;53.912;9.138;2022-10-16T14:22:28;101503.31;;;22.90;42.42
37312;BME280;23197;53.912;9.138;2022-10-16T14:24:55;101507.41;;;22.76;42.78
37312;BME280;23197;53.912;9.138;2022-10-16T14:27:33;101513.19;;;22.63;43.25
37312;BME280;23197;53.912;9.138;2022-10-16T14:32:34;101522.38;;;22.43;43.63